Time;durP1;ratioP1;P1;durP2;ratioP2;P2;SDS_P1;SDS_P2;PMS_P1;PMS_P2;Temp;Humidity;BMP_temperature;BMP_pressure;BME280_temperature;BME280_humidity;BME280_pressure;Samples;Min_cycle;Max_cycle;Signal;HPM_P1;HPM_P2
2022/07/05 00:00:49;;;;;;;6.12;5.47;;;;;;;18.43;93.15;99317.52;1763974;80;20966;-70
2022/07/05 00:03:16;;;;;;;6.47;5.85;;;;;;;18.39;92.98;99320.86;1774756;80;21025;-70
2022/07/05 00:05:43;;;;;;;10.30;6.60;;;;;;;18.35;92.98;99314.17;1757644;80;21033;-70
2022/07/05 00:08:09;;;;;;;8.38;6.87;;;;;;;18.33;93.58;99316.56;1771668;79;20991;-70
2022/07/05 00:10:36;;;;;;;7.67;6.28;;;;;;;18.31;94.39;99319.30;1746474;80;21127;-70
2022/07/05 00:13:04;;;;;;;7.97;5.35;;;;;;;18.29;95.06;99318.58;1745483;81;21648;-70
2022/07/05 00:15:31;;;;;;;9.23;5.90;;;;;;;18.29;95.44;99317.27;1760505;80;21038;-70
2022/07/05 00:17:57;;;;;;;6.92;6.22;;;;;;;18.26;95.08;99321.44;1765145;80;21085;-70
2022/07/05 00:20:24;;;;;;;7.10;6.50;;;;;;;18.24;94.89;99320.23;1743512;80;21495;-70
2022/07/05 00:22:51;;;;;;;8.60;6.55;;;;;;;18.21;94.95;99327.04;1751472;80;21101;-70
2022/07/05 00:25:17;;;;;;;6.30;5.47;;;;;;;18.21;95.65;99327.52;1746468;80;21042;-70
2022/07/05 00:27:44;;;;;;;6.55;5.58;;;;;;;18.19;96.68;99325.47;1772110;81;20994;-70
2022/07/05 00:30:13;;;;;;;7.05;6.40;;;;;;;18.21;97.81;99324.89;1774384;80;20975;-70
2022/07/05 00:32:40;;;;;;;8.45;5.97;;;;;;;18.21;98.54;99328.36;1768710;80;20943;-70
2022/07/05 00:35:08;;;;;;;6.92;6.22;;;;;;;18.21;99.01;99327.04;1772829;80;21985;-70
2022/07/05 00:37:35;;;;;;;6.08;5.53;;;;;;;18.23;99.14;99322.50;1746102;80;21174;-70
2022/07/05 00:40:02;;;;;;;10.28;6.20;;;;;;;18.25;98.97;99324.55;1740834;80;21043;-70
2022/07/05 00:42:28;;;;;;;6.58;5.90;;;;;;;18.27;98.78;99324.91;1756588;80;21594;-69
2022/07/05 00:44:55;;;;;;;7.22;6.60;;;;;;;18.27;98.60;99323.59;1763577;80;21083;-69
2022/07/05 00:47:21;;;;;;;7.15;6.50;;;;;;;18.27;98.35;99320.48;1756813;80;21962;-70
2022/07/05 00:49:48;;;;;;;6.65;6.15;;;;;;;18.27;98.08;99325.75;1774992;80;20987;-70
2022/07/05 00:52:15;;;;;;;6.35;5.67;;;;;;;18.28;97.81;99318.69;1773473;80;21474;-70
2022/07/05 00:54:42;;;;;;;7.83;7.08;;;;;;;18.28;97.79;99326.59;1748547;80;21003;-70
2022/07/05 00:57:08;;;;;;;6.40;5.90;;;;;;;18.28;97.78;99326.11;1765711;81;21383;-70
2022/07/05 00:59:36;;;;;;;7.05;6.35;;;;;;;18.27;96.85;99327.06;1753935;80;21129;-70
2022/07/05 01:02:03;;;;;;;6.53;5.92;;;;;;;18.24;95.86;99322.87;1731479;81;21078;-70
2022/07/05 01:04:31;;;;;;;6.20;5.70;;;;;;;18.21;95.08;99329.67;1738634;80;20989;-70
2022/07/05 01:06:58;;;;;;;6.78;6.15;;;;;;;18.18;95.09;99318.09;1763107;80;20995;-70
2022/07/05 01:09:25;;;;;;;6.85;6.25;;;;;;;18.16;95.76;99322.63;1763022;80;20990;-70
2022/07/05 01:11:52;;;;;;;8.20;6.03;;;;;;;18.14;95.45;99323.21;1737667;80;21465;-70
2022/07/05 01:14:20;;;;;;;8.45;6.17;;;;;;;18.11;94.83;99315.54;1732396;80;20952;-70
2022/07/05 01:16:49;;;;;;;6.28;5.78;;;;;;;18.07;94.64;99309.30;1732729;80;21170;-70
2022/07/05 01:19:17;;;;;;;7.55;6.37;;;;;;;18.03;94.82;99309.99;1758862;80;21050;-70
2022/07/05 01:21:44;;;;;;;6.97;6.33;;;;;;;18.02;95.42;99315.37;1737778;80;20953;-70
2022/07/05 01:24:13;;;;;;;9.28;6.30;;;;;;;18.01;95.93;99318.95;1774690;80;21117;-70
2022/07/05 01:26:40;;;;;;;10.78;5.42;;;;;;;17.99;95.52;99321.70;1770450;80;20979;-70
2022/07/05 01:29:09;;;;;;;6.12;5.58;;;;;;;17.95;95.11;99316.80;1751478;79;21418;-70
2022/07/05 01:31:40;;;;;;;7.20;6.45;;;;;;;17.93;95.03;99309.49;1768653;80;20987;-70
2022/07/05 01:34:07;;;;;;;6.67;6.00;;;;;;;17.92;94.89;99309.13;1757427;80;21038;-70
2022/07/05 01:36:35;;;;;;;6.75;6.22;;;;;;;17.89;94.89;99310.19;1773490;80;21121;-70
2022/07/05 01:39:04;;;;;;;7.33;5.62;;;;;;;17.89;94.61;99311.50;1772525;80;20988;-70
2022/07/05 01:41:32;;;;;;;6.17;5.45;;;;;;;17.85;94.40;99300.84;1746242;80;21558;-70
2022/07/05 01:43:59;;;;;;;7.45;5.67;;;;;;;17.81;94.20;99309.43;1768114;80;20939;-70
2022/07/05 01:46:29;;;;;;;9.13;6.28;;;;;;;17.77;94.08;99309.80;1735167;79;21052;-71
2022/07/05 01:48:56;;;;;;;7.12;6.42;;;;;;;17.72;94.15;99310.13;1775280;79;21509;-71
2022/07/05 01:51:27;;;;;;;6.92;6.40;;;;;;;17.70;94.25;99317.28;1743876;80;21164;-70
2022/07/05 01:53:53;;;;;;;10.48;5.60;;;;;;;17.68;94.55;99309.98;1762666;79;21097;-70
2022/07/05 01:56:20;;;;;;;7.05;6.35;;;;;;;17.68;95.32;99302.08;1764843;79;21062;-70
2022/07/05 01:58:47;;;;;;;7.33;6.58;;;;;;;17.71;96.59;99311.07;1742682;80;21004;-70
2022/07/05 02:01:14;;;;;;;9.03;6.30;;;;;;;17.75;97.09;99305.11;1726940;81;21207;-70
2022/07/05 02:03:40;;;;;;;6.20;5.70;;;;;;;17.76;97.41;99305.00;1761487;80;20985;-70
2022/07/05 02:06:10;;;;;;;8.55;6.50;;;;;;;17.78;97.74;99302.27;1744413;80;20945;-70
2022/07/05 02:08:37;;;;;;;7.37;6.35;;;;;;;17.79;98.17;99303.44;1764263;80;21019;-70
2022/07/05 02:11:05;;;;;;;8.15;6.53;;;;;;;17.80;96.90;99302.96;1770982;80;20988;-69
2022/07/05 02:13:31;;;;;;;7.28;6.47;;;;;;;17.76;96.07;99311.58;1774130;80;21143;-69
2022/07/05 02:15:59;;;;;;;9.35;6.08;;;;;;;17.72;96.34;99306.66;1752721;80;21433;-69
2022/07/05 02:18:26;;;;;;;9.53;5.97;;;;;;;17.72;96.31;99311.44;1750622;80;20995;-69
2022/07/05 02:20:53;;;;;;;8.38;5.95;;;;;;;17.78;96.42;99313.63;1770696;81;21097;-70
2022/07/05 02:23:20;;;;;;;8.98;6.33;;;;;;;17.89;95.92;99321.55;1773047;80;21121;-70
2022/07/05 02:25:47;;;;;;;7.40;6.70;;;;;;;18.08;95.79;99314.92;1732752;80;21227;-70
2022/07/05 02:28:15;;;;;;;10.50;6.25;;;;;;;18.31;96.19;99314.52;1761866;80;20997;-70
2022/07/05 02:30:43;;;;;;;7.60;6.50;;;;;;;18.53;95.98;99303.55;1726227;80;21056;-70
2022/07/05 02:33:10;;;;;;;8.80;6.17;;;;;;;18.78;95.18;99305.17;1744871;80;21009;-70
2022/07/05 02:35:37;;;;;;;6.60;5.83;;;;;;;19.03;94.40;99302.75;1752087;80;20939;-70
2022/07/05 02:38:04;;;;;;;8.45;6.47;;;;;;;19.31;91.78;99307.16;1773370;80;21489;-70
2022/07/05 02:40:31;;;;;;;7.45;6.08;;;;;;;19.56;90.09;99305.10;1764615;80;20936;-70
2022/07/05 02:42:59;;;;;;;8.28;6.72;;;;;;;19.86;88.42;99311.47;1748381;80;20982;-71
2022/07/05 02:45:25;;;;;;;10.00;6.70;;;;;;;20.18;87.04;99311.45;1772998;80;21179;-71
2022/07/05 02:47:54;;;;;;;7.10;6.03;;;;;;;20.53;85.19;99311.99;1754887;80;21113;-71
2022/07/05 02:50:21;;;;;;;6.33;5.72;;;;;;;20.88;82.82;99313.41;1753707;80;21828;-71
2022/07/05 02:52:49;;;;;;;15.48;6.92;;;;;;;21.22;80.66;99318.78;1746012;80;21075;-71
2022/07/05 02:55:16;;;;;;;9.85;5.60;;;;;;;21.53;78.83;99315.60;1760040;80;21479;-71
2022/07/05 02:57:43;;;;;;;10.32;6.12;;;;;;;21.91;77.13;99321.91;1743804;80;21089;-71
2022/07/05 03:00:11;;;;;;;9.05;6.17;;;;;;;22.29;76.13;99320.59;1770770;80;20951;-72
2022/07/05 03:02:40;;;;;;;6.80;6.00;;;;;;;22.64;74.55;99321.28;1764739;80;21391;-71
2022/07/05 03:05:08;;;;;;;7.47;5.60;;;;;;;23.00;73.07;99314.84;1737211;80;21460;-71
2022/07/05 03:07:36;;;;;;;13.58;5.72;;;;;;;23.32;71.57;99311.27;1764327;80;21068;-71
2022/07/05 03:10:04;;;;;;;9.60;5.78;;;;;;;23.69;70.26;99318.34;1730465;80;21602;-71
2022/07/05 03:12:32;;;;;;;7.10;5.47;;;;;;;24.07;67.72;99313.70;1739642;80;20979;-71
2022/07/05 03:14:59;;;;;;;5.72;5.30;;;;;;;24.46;66.19;99320.85;1760501;80;21831;-71
2022/07/05 03:17:27;;;;;;;6.10;5.50;;;;;;;24.86;64.97;99320.27;1764486;80;21001;-71
2022/07/05 03:19:53;;;;;;;10.25;5.37;;;;;;;25.17;63.83;99316.64;1739588;80;21484;-72
2022/07/05 03:22:21;;;;;;;6.80;5.70;;;;;;;25.52;62.09;99319.09;1765131;80;21454;-72
2022/07/05 03:24:48;;;;;;;10.58;5.55;;;;;;;25.89;60.09;99316.52;1745868;80;21450;-72
2022/07/05 03:27:16;;;;;;;6.87;5.50;;;;;;;26.20;58.59;99320.69;1721624;80;22139;-72
2022/07/05 03:29:43;;;;;;;5.80;5.33;;;;;;;26.50;57.36;99312.04;1739172;80;20958;-72
2022/07/05 03:32:10;;;;;;;5.90;5.40;;;;;;;26.78;56.42;99302.33;1773318;80;21097;-71
2022/07/05 03:34:38;;;;;;;5.92;5.37;;;;;;;27.05;55.34;99310.75;1742928;79;21639;-72
2022/07/05 03:37:06;;;;;;;6.92;6.17;;;;;;;27.32;54.19;99312.16;1753985;80;21046;-72
2022/07/05 03:39:33;;;;;;;7.92;6.17;;;;;;;27.52;53.19;99315.22;1775261;80;21492;-72
2022/07/05 03:42:00;;;;;;;7.05;6.03;;;;;;;27.67;52.71;99316.16;1754453;80;20999;-72
2022/07/05 03:44:31;;;;;;;7.90;5.92;;;;;;;27.92;52.22;99316.83;1760030;80;20982;-72
2022/07/05 03:46:57;;;;;;;6.72;6.03;;;;;;;28.24;51.47;99321.62;1764882;80;20960;-71
2022/07/05 03:49:26;;;;;;;8.68;5.83;;;;;;;28.42;50.67;99328.30;1735732;80;21052;-69
2022/07/05 03:51:53;;;;;;;8.10;5.83;;;;;;;28.63;50.13;99322.25;1745334;80;21125;-68
2022/07/05 03:54:19;;;;;;;10.20;6.58;;;;;;;28.89;49.68;99316.49;1766492;80;21520;-68
2022/07/05 03:56:46;;;;;;;11.38;6.17;;;;;;;29.19;49.27;99319.14;1765349;80;21543;-68
2022/07/05 03:59:13;;;;;;;10.08;7.15;;;;;;;29.46;49.41;99322.00;1772791;80;21057;-68
2022/07/05 04:01:41;;;;;;;7.22;6.47;;;;;;;29.74;48.59;99315.42;1772591;80;20931;-68
2022/07/05 04:04:08;;;;;;;7.33;6.62;;;;;;;29.97;48.01;99311.22;1763955;80;21086;-67
2022/07/05 04:06:35;;;;;;;6.70;5.95;;;;;;;30.11;47.78;99310.34;1745923;80;20945;-65
2022/07/05 04:09:03;;;;;;;7.85;6.47;;;;;;;30.27;47.48;99316.45;1751169;80;21041;-66
2022/07/05 04:11:30;;;;;;;9.60;6.97;;;;;;;30.46;46.79;99318.46;1719636;80;20987;-67
2022/07/05 04:13:57;;;;;;;7.15;6.03;;;;;;;30.59;46.63;99312.38;1753266;79;20994;-67
2022/07/05 04:16:25;;;;;;;10.58;6.65;;;;;;;30.77;46.34;99314.91;1740294;80;21187;-66
2022/07/05 04:18:52;;;;;;;9.13;6.20;;;;;;;31.05;45.97;99320.22;1735617;80;21166;-67
2022/07/05 04:21:20;;;;;;;7.50;6.37;;;;;;;31.35;45.44;99314.61;1764058;80;21128;-67
2022/07/05 04:23:48;;;;;;;16.77;7.70;;;;;;;31.59;44.77;99314.56;1773980;80;22493;-67
2022/07/05 04:26:16;;;;;;;6.90;6.22;;;;;;;31.81;44.47;99321.48;1764605;80;21081;-67
2022/07/05 04:28:44;;;;;;;8.88;6.83;;;;;;;32.00;43.95;99323.37;1762007;80;21029;-67
2022/07/05 04:31:13;;;;;;;9.80;6.72;;;;;;;32.21;43.69;99316.17;1764019;80;20955;-67
2022/07/05 04:33:42;;;;;;;14.23;6.87;;;;;;;32.45;43.25;99321.77;1762772;80;20991;-67
2022/07/05 04:36:09;;;;;;;11.25;6.80;;;;;;;32.72;42.60;99319.06;1744434;80;21005;-67
2022/07/05 04:38:37;;;;;;;17.52;8.58;;;;;;;32.84;41.69;99312.84;1752092;80;20976;-67
2022/07/05 04:41:04;;;;;;;12.73;6.83;;;;;;;32.81;41.77;99313.25;1747643;80;21750;-67
2022/07/05 04:43:33;;;;;;;11.33;6.50;;;;;;;32.92;41.53;99317.19;1765233;80;22035;-67
2022/07/05 04:46:01;;;;;;;12.20;6.65;;;;;;;33.13;41.26;99313.39;1763174;80;21021;-67
2022/07/05 04:48:28;;;;;;;17.77;8.23;;;;;;;33.41;40.63;99310.38;1765531;80;21475;-67
2022/07/05 04:50:55;;;;;;;17.70;7.55;;;;;;;33.69;39.80;99306.83;1762811;80;21031;-67
2022/07/05 04:53:22;;;;;;;9.48;6.12;;;;;;;33.92;39.47;99314.39;1736673;81;21503;-67
2022/07/05 04:55:49;;;;;;;8.83;6.37;;;;;;;34.07;39.05;99314.07;1742580;80;20948;-67
2022/07/05 04:58:15;;;;;;;7.05;6.20;;;;;;;34.01;38.58;99313.59;1758493;80;20986;-67
2022/07/05 05:00:42;;;;;;;12.13;7.15;;;;;;;33.85;38.63;99313.08;1775414;80;20927;-67
2022/07/05 05:03:09;;;;;;;13.65;6.85;;;;;;;33.79;38.56;99311.23;1774706;80;20935;-67
2022/07/05 05:05:35;;;;;;;6.35;5.72;;;;;;;33.67;38.04;99318.34;1775894;80;21152;-67
2022/07/05 05:08:03;;;;;;;11.95;5.95;;;;;;;33.56;37.96;99319.56;1756503;80;21499;-68
2022/07/05 05:10:30;;;;;;;21.65;7.78;;;;;;;33.61;38.13;99315.67;1746146;80;21210;-68
2022/07/05 05:12:56;;;;;;;10.32;6.50;;;;;;;33.76;38.05;99306.80;1759611;80;21071;-69
2022/07/05 05:15:24;;;;;;;20.02;7.97;;;;;;;33.91;37.93;99310.04;1729837;80;20985;-68
2022/07/05 05:17:51;;;;;;;10.50;6.40;;;;;;;34.06;37.59;99307.84;1749955;80;21132;-68
2022/07/05 05:20:18;;;;;;;9.43;6.03;;;;;;;34.04;37.34;99307.75;1758137;80;21036;-66
2022/07/05 05:22:46;;;;;;;7.65;5.80;;;;;;;33.80;38.01;99307.50;1740356;81;21019;-67
2022/07/05 05:25:12;;;;;;;7.15;6.05;;;;;;;33.79;38.14;99306.36;1754392;80;21016;-67
2022/07/05 05:27:45;;;;;;;8.88;5.72;;;;;;;33.99;37.79;99314.33;1749287;81;20985;-68
2022/07/05 05:30:15;;;;;;;5.87;5.15;;;;;;;34.29;36.94;99310.50;1750644;81;21716;-68
2022/07/05 05:32:42;;;;;;;6.85;5.72;;;;;;;34.56;35.90;99320.03;1756187;80;21077;-67
2022/07/05 05:35:08;;;;;;;6.75;5.00;;;;;;;34.84;35.44;99322.27;1764925;79;21083;-68
2022/07/05 05:37:55;;;;;;;5.03;4.53;;;;;;;35.07;34.04;99324.30;1739744;80;21032;-67
2022/07/05 05:40:24;;;;;;;5.10;4.55;;;;;;;35.14;33.73;99321.84;1751079;80;21513;-67
2022/07/05 05:42:51;;;;;;;6.22;5.62;;;;;;;35.19;33.02;99317.91;1763374;80;21305;-67
2022/07/05 05:45:18;;;;;;;9.70;5.87;;;;;;;35.12;33.25;99317.17;1773976;80;21061;-68
2022/07/05 05:47:57;;;;;;;8.15;6.67;;;;;;;35.00;33.87;99312.20;1742153;80;21493;-68
2022/07/05 05:50:29;;;;;;;9.18;6.42;;;;;;;34.97;34.73;99312.69;1734924;81;21135;-68
2022/07/05 05:52:55;;;;;;;;;;;;;;;35.02;35.25;99316.03;1747465;80;21061;-68
2022/07/05 05:55:25;;;;;;;7.30;6.37;;;;;;;35.19;35.09;99311.67;1737822;80;21779;-67
2022/07/05 05:57:53;;;;;;;12.78;6.55;;;;;;;35.34;34.74;99308.63;1728787;81;21502;-68
2022/07/05 06:00:20;;;;;;;8.45;6.55;;;;;;;35.42;34.37;99313.70;1757063;80;20965;-67
2022/07/05 06:02:49;;;;;;;7.42;5.75;;;;;;;35.41;33.56;99304.77;1760390;80;21069;-67
2022/07/05 06:05:16;;;;;;;10.00;5.70;;;;;;;35.20;33.56;99310.09;1762114;80;21180;-67
2022/07/05 06:07:48;;;;;;;10.53;6.70;;;;;;;34.85;33.81;99312.59;1773426;80;21231;-68
2022/07/05 06:10:19;;;;;;;;;;;;;;;34.56;34.43;99307.88;1748311;80;21031;-68
2022/07/05 06:12:47;;;;;;;9.48;5.45;;;;;;;34.19;35.02;99308.25;1724777;82;20252;-69
2022/07/05 06:15:15;;;;;;;8.03;4.87;;;;;;;33.93;34.92;99313.34;1750472;80;21087;-68
2022/07/05 06:17:42;;;;;;;8.33;4.53;;;;;;;33.67;34.29;99313.47;1769025;80;21930;-69
2022/07/05 06:20:12;;;;;;;7.25;4.45;;;;;;;33.56;33.96;99309.61;1760922;80;21226;-69
2022/07/05 06:22:39;;;;;;;5.15;4.33;;;;;;;33.53;32.46;99302.77;1741424;80;21535;-70
2022/07/05 06:25:07;;;;;;;4.80;4.25;;;;;;;33.57;31.88;99303.69;1752292;80;21040;-69
2022/07/05 06:27:47;;;;;;;4.42;4.12;;;;;;;33.58;31.86;99302.63;1743312;80;21100;-68
2022/07/05 06:30:18;;;;;;;4.65;4.03;;;;;;;33.47;31.02;99302.27;1749385;80;21091;-69
2022/07/05 06:32:47;;;;;;;5.35;4.17;;;;;;;33.36;30.94;99307.01;1728798;80;21850;-68
2022/07/05 06:35:13;;;;;;;5.30;4.67;;;;;;;33.27;30.83;99308.28;1774820;80;21007;-68
2022/07/05 06:37:47;;;;;;;5.62;4.05;;;;;;;33.23;30.70;99304.31;1769330;80;21007;-68
2022/07/05 06:40:26;;;;;;;4.58;4.17;;;;;;;33.13;30.88;99307.48;1750855;80;21002;-68
2022/07/05 06:42:55;;;;;;;12.37;5.35;;;;;;;33.02;31.86;99309.47;1733367;80;21037;-67
2022/07/05 06:45:25;;;;;;;4.72;3.98;;;;;;;32.90;31.26;99311.17;1736255;80;21106;-67
2022/07/05 06:48:00;;;;;;;6.30;3.87;;;;;;;32.76;30.73;99315.77;1763421;80;20955;-66
2022/07/05 06:50:28;;;;;;;5.30;4.20;;;;;;;32.61;31.23;99312.44;1756017;80;21058;-67
2022/07/05 06:52:55;;;;;;;6.80;4.05;;;;;;;32.45;31.89;99316.91;1731961;80;21003;-67
2022/07/05 06:55:22;;;;;;;4.85;3.87;;;;;;;32.34;32.31;99311.64;1757396;80;20995;-67
2022/07/05 06:58:02;;;;;;;4.25;3.95;;;;;;;32.24;31.97;99320.64;1750815;79;21684;-68
2022/07/05 07:00:29;;;;;;;5.37;3.85;;;;;;;32.02;31.76;99321.83;1749547;80;21022;-67
2022/07/05 07:02:57;;;;;;;4.65;3.75;;;;;;;31.77;32.25;99322.94;1732094;80;21497;-68
2022/07/05 07:05:25;;;;;;;4.50;3.67;;;;;;;31.56;32.47;99316.34;1719607;82;20998;-68
2022/07/05 07:10:38;;;;;;;5.55;3.83;;;;;;;31.25;33.13;99312.80;1722519;82;21155;-68
2022/07/05 07:13:05;;;;;;;5.70;3.87;;;;;;;31.13;33.07;99304.48;1737031;82;21481;-68
2022/07/05 07:15:37;;;;;;;4.10;3.70;;;;;;;31.06;33.07;99300.39;1726624;81;21028;-67
2022/07/05 07:18:01;;;;;;;3.83;3.52;;;;;;;31.01;33.11;99297.45;1719274;82;20970;-66
2022/07/05 07:20:28;;;;;;;4.40;3.80;;;;;;;30.88;32.96;99296.06;1713003;82;21045;-68
2022/07/05 07:22:55;;;;;;;4.62;3.65;;;;;;;30.81;33.64;99294.67;1721453;82;21106;-68
2022/07/05 07:25:23;;;;;;;3.98;3.67;;;;;;;30.78;33.27;99291.55;1719525;81;21055;-67
2022/07/05 07:27:53;;;;;;;6.10;3.92;;;;;;;30.72;33.75;99294.53;1752378;80;21038;-68
2022/07/05 07:30:24;;;;;;;4.60;4.22;;;;;;;30.77;33.36;99297.45;1764967;80;21559;-67
2022/07/05 07:32:52;;;;;;;4.12;3.83;;;;;;;30.81;33.24;99301.38;1758333;80;21032;-69
2022/07/05 07:35:19;;;;;;;5.60;3.60;;;;;;;30.78;32.50;99297.74;1737644;79;21715;-66
2022/07/05 07:37:46;;;;;;;4.17;3.77;;;;;;;30.75;32.54;99296.82;1747035;79;21073;-68
2022/07/05 07:40:13;;;;;;;4.90;4.00;;;;;;;30.66;33.09;99295.30;1749496;80;21068;-68
2022/07/05 07:42:39;;;;;;;4.20;3.90;;;;;;;30.55;34.02;99296.34;1772391;80;21037;-68
2022/07/05 07:45:10;;;;;;;6.30;3.90;;;;;;;30.48;33.90;99290.92;1741413;80;21169;-67
2022/07/05 07:47:38;;;;;;;8.08;4.12;;;;;;;30.50;33.79;99295.58;1760137;80;21570;-67
2022/07/05 07:50:06;;;;;;;4.53;3.90;;;;;;;30.54;34.07;99292.00;1774789;80;21006;-69
2022/07/05 07:52:36;;;;;;;4.08;3.75;;;;;;;30.56;33.94;99288.64;1766639;80;21050;-69
2022/07/05 07:55:05;;;;;;;4.20;3.90;;;;;;;30.55;33.37;99289.16;1752863;79;21557;-69
2022/07/05 07:57:31;;;;;;;5.40;3.80;;;;;;;30.56;33.77;99288.64;1772033;79;21483;-68
2022/07/05 07:59:58;;;;;;;5.60;3.80;;;;;;;30.66;33.51;99294.48;1773141;80;21247;-69
2022/07/05 08:02:25;;;;;;;4.33;4.00;;;;;;;30.75;33.37;99283.40;1761344;80;21049;-68
2022/07/05 08:04:53;;;;;;;7.15;5.53;;;;;;;30.84;32.86;99283.53;1770862;80;20990;-69
2022/07/05 08:07:20;;;;;;;6.22;4.53;;;;;;;30.91;33.08;99292.98;1760872;79;21431;-69
2022/07/05 08:09:49;;;;;;;7.15;4.15;;;;;;;31.00;32.82;99289.59;1749681;80;21061;-70
2022/07/05 08:12:18;;;;;;;6.35;4.05;;;;;;;31.07;33.34;99283.75;1768078;80;21155;-69
2022/07/05 08:14:47;;;;;;;4.67;4.25;;;;;;;31.11;33.03;99287.73;1771134;79;21002;-70
2022/07/05 08:17:14;;;;;;;4.78;4.37;;;;;;;31.15;32.35;99280.43;1750769;79;21047;-70
2022/07/05 08:22:26;;;;;;;10.08;4.45;;;;;;;31.21;32.29;99281.98;1765208;80;21047;-69
2022/07/05 08:24:52;;;;;;;9.38;4.58;;;;;;;31.27;32.56;99281.19;1761120;80;21728;-70
2022/07/05 08:27:19;;;;;;;5.00;4.47;;;;;;;31.33;32.19;99281.22;1772532;80;20939;-71
2022/07/05 08:29:47;;;;;;;5.37;4.87;;;;;;;31.37;31.81;99278.45;1767442;80;21042;-69
2022/07/05 08:32:14;;;;;;;5.20;4.60;;;;;;;31.40;32.06;99273.98;1762216;80;21013;-69
2022/07/05 08:34:40;;;;;;;7.95;4.10;;;;;;;31.49;32.42;99276.81;1768364;80;20975;-69
2022/07/05 08:37:07;;;;;;;6.40;4.97;;;;;;;31.51;31.58;99277.95;1753403;80;21140;-69
2022/07/05 08:39:35;;;;;;;5.42;4.60;;;;;;;31.56;31.84;99278.19;1762272;80;21719;-72
2022/07/05 08:42:03;;;;;;;6.08;4.45;;;;;;;31.60;31.54;99279.41;1767532;80;21039;-74
2022/07/05 08:44:32;;;;;;;4.10;3.75;;;;;;;31.62;31.37;99279.21;1753408;80;21061;-73
2022/07/05 08:46:59;;;;;;;5.20;4.70;;;;;;;31.67;31.76;99281.64;1730770;80;21561;-74
2022/07/05 08:49:27;;;;;;;9.55;6.28;;;;;;;31.78;31.33;99278.85;1729416;81;21114;-72
2022/07/05 08:51:55;;;;;;;9.70;5.05;;;;;;;31.81;30.69;99275.77;1770549;80;21069;-74
2022/07/05 08:54:23;;;;;;;5.00;4.50;;;;;;;31.83;30.39;99274.53;1754461;80;21076;-73
2022/07/05 08:56:51;;;;;;;4.75;4.35;;;;;;;31.92;30.09;99279.72;1757326;80;21013;-72
2022/07/05 08:59:18;;;;;;;5.00;4.47;;;;;;;32.03;30.04;99273.20;1733448;80;20958;-73
2022/07/05 09:01:47;;;;;;;12.40;4.70;;;;;;;32.15;29.92;99278.29;1758309;80;21243;-73
2022/07/05 09:04:14;;;;;;;11.55;5.20;;;;;;;32.29;30.11;99272.92;1709013;80;21123;-73
2022/07/05 09:06:42;;;;;;;7.17;6.60;;;;;;;32.39;29.78;99274.14;1766188;80;21009;-73
2022/07/05 09:09:10;;;;;;;5.25;4.85;;;;;;;32.45;30.12;99268.45;1758294;80;21472;-73
2022/07/05 09:11:39;;;;;;;7.55;4.67;;;;;;;32.52;29.94;99267.41;1730585;80;21069;-73
2022/07/05 09:14:19;;;;;;;7.72;4.40;;;;;;;32.65;30.00;99269.24;1725962;80;21129;-72
2022/07/05 09:16:46;;;;;;;7.97;4.47;;;;;;;32.80;29.35;99267.16;1749692;80;21047;-73
2022/07/05 09:19:12;;;;;;;4.70;3.67;;;;;;;32.85;29.75;99270.05;1767846;80;21558;-74
2022/07/05 09:21:39;;;;;;;8.60;4.33;;;;;;;32.92;28.97;99261.95;1764870;80;21068;-74
2022/07/05 09:24:11;;;;;;;10.13;4.30;;;;;;;32.93;29.16;99258.22;1759348;80;21051;-74
2022/07/05 09:26:44;;;;;;;5.03;4.50;;;;;;;32.99;28.82;99260.05;1724374;81;21111;-75
2022/07/05 09:29:15;;;;;;;12.18;5.12;;;;;;;33.06;28.41;99254.13;1751298;80;21111;-74
2022/07/05 09:31:45;;;;;;;5.35;4.10;;;;;;;33.12;28.22;99259.19;1773842;80;21008;-73
2022/07/05 09:34:16;;;;;;;8.50;3.92;;;;;;;33.16;28.66;99263.11;1759855;80;21057;-73
2022/07/05 09:36:49;;;;;;;;;;;;;;;33.23;28.66;99250.94;1751423;80;21030;-73
2022/07/05 09:39:32;;;;;;;15.10;5.33;;;;;;;33.28;28.22;99256.55;1751565;80;21073;-77
2022/07/05 09:42:20;;;;;;;4.72;4.33;;;;;;;33.29;27.72;99258.20;1749019;80;20980;-78
2022/07/05 09:44:51;;;;;;;11.20;4.75;;;;;;;33.26;27.73;99264.02;1755636;80;21440;-78
2022/07/05 09:47:20;;;;;;;8.03;4.40;;;;;;;33.21;27.93;99255.19;1762955;80;21323;-78
2022/07/05 09:49:51;;;;;;;4.33;4.00;;;;;;;33.24;28.08;99255.28;1757645;80;21638;-78
2022/07/05 09:52:30;;;;;;;5.37;4.10;;;;;;;33.27;27.97;99258.41;1755846;80;21193;-78
2022/07/05 09:55:19;;;;;;;4.40;4.00;;;;;;;33.31;28.02;99257.47;1732293;80;21299;-78
2022/07/05 09:57:43;;;;;;;4.53;4.12;;;;;;;33.31;27.76;99252.91;1743152;80;21083;-78
2022/07/05 10:00:14;;;;;;;6.72;4.17;;;;;;;33.23;28.01;99250.94;1750553;80;21450;-78
2022/07/05 10:02:52;;;;;;;5.70;4.50;;;;;;;33.17;28.22;99252.09;1756996;80;21148;-75
2022/07/05 10:05:24;;;;;;;7.08;4.17;;;;;;;33.11;27.97;99255.66;1755341;80;21310;-76
2022/07/05 10:07:56;;;;;;;4.92;4.22;;;;;;;33.11;28.38;99255.66;1743444;80;20959;-76
2022/07/05 10:10:31;;;;;;;4.75;4.35;;;;;;;33.15;28.39;99249.33;1754413;81;21064;-76
2022/07/05 10:13:00;;;;;;;7.45;4.25;;;;;;;33.21;27.80;99247.93;1721374;81;21439;-68
2022/07/05 10:15:29;;;;;;;6.30;4.00;;;;;;;33.27;27.85;99244.11;1658435;85;21074;-69
2022/07/05 10:18:18;;;;;;;4.37;3.95;;;;;;;33.30;27.69;99245.86;1663589;84;21309;-70
2022/07/05 10:20:45;;;;;;;6.28;3.90;;;;;;;33.35;28.37;99246.56;1670672;85;21117;-70
2022/07/05 10:23:16;;;;;;;4.35;3.95;;;;;;;33.36;27.80;99237.44;1713079;83;21452;-72
2022/07/05 10:25:48;;;;;;;8.08;4.20;;;;;;;33.36;27.68;99236.92;1722875;80;21039;-71
2022/07/05 10:28:16;;;;;;;5.22;4.00;;;;;;;33.33;27.55;99236.00;1744686;81;21551;-70
2022/07/05 10:30:49;;;;;;;4.60;4.15;;;;;;;33.30;27.37;99232.38;1724211;82;21379;-72
2022/07/05 10:33:19;;;;;;;4.22;3.83;;;;;;;33.28;27.65;99233.64;1724331;82;21299;-71
2022/07/05 10:35:46;;;;;;;4.22;3.87;;;;;;;33.28;27.63;99235.81;1693892;81;21094;-70
2022/07/05 10:38:13;;;;;;;7.08;4.00;;;;;;;33.32;26.80;99240.25;1730042;82;21089;-71
2022/07/05 10:40:41;;;;;;;3.90;3.60;;;;;;;33.29;26.56;99237.98;1737957;80;21061;-71
2022/07/05 10:43:10;;;;;;;4.00;3.60;;;;;;;33.21;26.44;99231.76;1724950;80;21775;-72
2022/07/05 10:45:41;;;;;;;7.28;3.60;;;;;;;33.20;26.34;99230.10;1710229;80;21031;-69
2022/07/05 10:48:28;;;;;;;3.80;3.33;;;;;;;33.25;26.31;99229.98;1693675;83;20979;-69
2022/07/05 10:51:07;;;;;;;12.58;4.10;;;;;;;33.23;26.38;99230.72;1714315;82;21117;-71
2022/07/05 10:53:43;;;;;;;4.40;4.08;;;;;;;33.18;26.63;99225.45;1702171;83;20938;-71
2022/07/05 10:56:12;;;;;;;7.78;3.67;;;;;;;33.08;26.67;99219.70;1707396;83;21932;-70
2022/07/05 10:58:42;;;;;;;4.55;3.52;;;;;;;33.05;26.68;99220.66;1728004;82;21498;-70
2022/07/05 11:01:28;;;;;;;5.30;4.03;;;;;;;33.04;26.63;99212.26;1728114;82;21065;-71
2022/07/05 11:04:08;;;;;;;5.00;4.08;;;;;;;33.05;26.90;99217.44;1728676;80;21016;-72
2022/07/05 11:06:44;;;;;;;4.12;3.80;;;;;;;33.06;27.01;99219.61;1750580;80;21061;-72
2022/07/05 11:09:15;;;;;;;4.15;3.85;;;;;;;32.99;26.91;99218.28;1754712;80;21790;-70
2022/07/05 11:11:55;;;;;;;4.97;3.65;;;;;;;32.90;26.80;99210.67;1747974;80;21556;-69
2022/07/05 11:14:29;;;;;;;4.25;3.85;;;;;;;32.92;26.98;99209.42;1674375;84;21077;-69
2022/07/05 11:17:15;;;;;;;5.15;3.80;;;;;;;32.98;26.57;99208.55;1737061;80;21002;-71
2022/07/05 11:20:12;;;;;;;4.25;3.42;;;;;;;32.97;26.95;99212.31;1736102;82;20959;-70
2022/07/05 11:23:11;;;;;;;5.50;3.87;;;;;;;33.05;27.33;99206.66;1733099;82;21334;-71
2022/07/05 11:25:42;;;;;;;6.33;3.67;;;;;;;33.15;26.88;99207.56;1703327;82;21077;-70
2022/07/05 11:28:16;;;;;;;5.45;3.85;;;;;;;33.25;26.82;99208.42;1762968;80;21550;-70
2022/07/05 11:30:55;;;;;;;5.90;3.83;;;;;;;33.36;27.03;99201.05;1761683;80;20951;-70
2022/07/05 11:33:44;;;;;;;6.15;3.90;;;;;;;33.48;26.63;99204.69;1772183;80;20939;-69
2022/07/05 11:36:26;;;;;;;5.65;3.50;;;;;;;33.52;26.50;99193.78;1767498;80;21148;-70
2022/07/05 11:39:19;;;;;;;7.45;4.00;;;;;;;33.50;26.33;99192.64;1767310;80;21085;-68
2022/07/05 11:41:47;;;;;;;5.42;3.60;;;;;;;33.44;26.19;99192.16;1770927;80;21015;-68
2022/07/05 11:44:16;;;;;;;4.95;3.75;;;;;;;33.39;26.37;99191.98;1771340;80;21038;-70
2022/07/05 11:46:43;;;;;;;4.30;3.90;;;;;;;33.37;26.81;99190.57;1771774;80;20911;-70